createdAt,value
2019-01-04T00:00:08.799Z,1010.30
2019-01-04T00:01:08.745Z,1010.30
2019-01-04T00:02:08.717Z,1010.31
2019-01-04T00:03:08.702Z,1010.30
2019-01-04T00:04:08.702Z,1010.28
2019-01-04T00:05:08.686Z,1010.30
2019-01-04T00:06:08.832Z,1010.29
2019-01-04T00:07:08.686Z,1010.26
2019-01-04T00:08:08.644Z,1010.27
2019-01-04T00:09:08.663Z,1010.22
2019-01-04T00:10:08.703Z,1010.20
2019-01-04T00:11:08.620Z,1010.21
2019-01-04T00:12:08.607Z,1010.20
2019-01-04T00:13:08.619Z,1010.16
2019-01-04T00:14:08.579Z,1010.18
2019-01-04T00:15:08.610Z,1010.16
2019-01-04T00:16:08.575Z,1010.13
2019-01-04T00:17:08.546Z,1010.14
2019-01-04T00:18:08.604Z,1010.11
2019-01-04T00:19:08.528Z,1010.13
2019-01-04T00:20:08.536Z,1010.13
2019-01-04T00:21:08.636Z,1010.12
2019-01-04T00:22:08.494Z,1010.13
2019-01-04T00:23:08.491Z,1010.14
2019-01-04T00:24:08.523Z,1010.11
2019-01-04T00:25:08.502Z,1010.11
2019-01-04T00:26:08.523Z,1010.12
2019-01-04T00:27:08.455Z,1010.10
2019-01-04T00:28:08.438Z,1010.08
2019-01-04T00:29:08.424Z,1010.12
2019-01-04T00:30:08.420Z,1010.18
2019-01-04T00:31:08.414Z,1010.20
2019-01-04T00:32:08.403Z,1010.26
2019-01-04T00:33:08.379Z,1010.36
2019-01-04T00:34:08.401Z,1010.32
2019-01-04T00:35:08.352Z,1010.30
2019-01-04T00:36:08.391Z,1010.24
2019-01-04T00:37:08.352Z,1010.25
2019-01-04T00:38:08.336Z,1010.24
2019-01-04T00:39:08.357Z,1010.21
2019-01-04T00:40:08.306Z,1010.22
2019-01-04T00:41:08.295Z,1010.23
2019-01-04T00:42:08.352Z,1010.19
2019-01-04T00:43:08.286Z,1010.22
2019-01-04T00:44:08.275Z,1010.22
2019-01-04T00:45:08.259Z,1010.24
2019-01-04T00:46:08.233Z,1010.20
2019-01-04T00:47:08.232Z,1010.16
2019-01-04T00:48:08.233Z,1010.17
2019-01-04T00:49:08.211Z,1010.13
2019-01-04T00:50:08.237Z,1010.11
2019-01-04T00:51:08.220Z,1010.10
2019-01-04T00:52:08.220Z,1010.10
2019-01-04T00:53:08.184Z,1010.06
2019-01-04T00:54:08.156Z,1010.07
2019-01-04T00:55:08.149Z,1010.06
2019-01-04T00:56:08.166Z,1010.10
2019-01-04T00:57:08.116Z,1010.11
2019-01-04T00:58:08.171Z,1010.11
2019-01-04T00:59:08.102Z,1010.08
2019-01-04T01:00:08.105Z,1010.09
2019-01-04T01:01:08.090Z,1010.08
2019-01-04T01:02:08.093Z,1010.09
2019-01-04T01:03:08.102Z,1010.14
2019-01-04T01:04:08.120Z,1010.10
2019-01-04T01:05:08.042Z,1010.17
2019-01-04T01:06:08.058Z,1010.16
2019-01-04T01:07:08.027Z,1010.16
2019-01-04T01:08:08.039Z,1010.12
2019-01-04T01:09:07.988Z,1010.10
2019-01-04T01:10:07.980Z,1010.08
2019-01-04T01:11:07.991Z,1010.14
2019-01-04T01:12:08.013Z,1010.12
2019-01-04T01:13:07.988Z,1010.12
2019-01-04T01:14:07.942Z,1010.11
2019-01-04T01:15:07.930Z,1010.11
2019-01-04T01:16:07.942Z,1010.19
2019-01-04T01:17:07.906Z,1010.22
2019-01-04T01:18:07.902Z,1010.20
2019-01-04T01:19:07.915Z,1010.22
2019-01-04T01:20:07.867Z,1010.22
2019-01-04T01:21:07.865Z,1010.19
2019-01-04T01:22:07.888Z,1010.24
2019-01-04T01:23:07.845Z,1010.21
2019-01-04T01:24:07.897Z,1010.20
2019-01-04T01:25:07.830Z,1010.17
2019-01-04T01:26:07.845Z,1010.11
2019-01-04T01:27:07.799Z,1010.03
2019-01-04T01:28:07.798Z,1010.04
2019-01-04T01:29:07.778Z,1010.02
2019-01-04T01:30:07.760Z,1010.06
2019-01-04T01:31:07.768Z,1010.08
2019-01-04T01:32:07.798Z,1010.11
2019-01-04T01:33:07.748Z,1010.18
2019-01-04T01:34:07.758Z,1010.15
2019-01-04T01:35:07.711Z,1010.17
2019-01-04T01:36:07.717Z,1010.15
2019-01-04T01:37:07.688Z,1010.22
2019-01-04T01:38:07.714Z,1010.24
2019-01-04T01:39:07.676Z,1010.24
2019-01-04T01:40:07.670Z,1010.24
2019-01-04T01:41:07.653Z,1010.24
2019-01-04T01:42:07.651Z,1010.22
2019-01-04T01:43:07.621Z,1010.23
2019-01-04T01:44:07.621Z,1010.24
2019-01-04T01:45:07.700Z,1010.29
2019-01-04T01:46:07.591Z,1010.29
2019-01-04T01:47:07.595Z,1010.34
2019-01-04T01:48:07.587Z,1010.35
2019-01-04T01:49:07.558Z,1010.36
2019-01-04T01:50:07.556Z,1010.39
2019-01-04T01:51:07.569Z,1010.42
2019-01-04T01:52:07.565Z,1010.41
2019-01-04T01:53:07.517Z,1010.38
2019-01-04T01:54:07.530Z,1010.43
2019-01-04T01:55:07.498Z,1010.42
2019-01-04T01:56:07.484Z,1010.43
2019-01-04T01:57:07.518Z,1010.47
2019-01-04T01:58:07.479Z,1010.42
2019-01-04T01:59:07.533Z,1010.42
2019-01-04T02:00:07.440Z,1010.42
2019-01-04T02:01:07.435Z,1010.44
2019-01-04T02:02:07.441Z,1010.33
2019-01-04T02:03:07.431Z,1010.39
2019-01-04T02:04:07.398Z,1010.41
2019-01-04T02:05:07.446Z,1010.45
2019-01-04T02:06:07.593Z,1010.43
2019-01-04T02:07:07.392Z,1010.44
2019-01-04T02:08:07.374Z,1010.50
2019-01-04T02:09:07.638Z,1010.50
2019-01-04T02:10:07.394Z,1010.50
2019-01-04T02:11:07.328Z,1010.50
2019-01-04T02:12:07.328Z,1010.50
2019-01-04T02:13:07.327Z,1010.50
2019-01-04T02:14:07.297Z,1010.48
2019-01-04T02:15:07.291Z,1010.44
2019-01-04T02:16:07.271Z,1010.42
2019-01-04T02:17:07.285Z,1010.42
2019-01-04T02:18:07.247Z,1010.44
2019-01-04T02:19:07.256Z,1010.51
2019-01-04T02:20:07.225Z,1010.45
2019-01-04T02:21:07.222Z,1010.46
2019-01-04T02:22:07.223Z,1010.40
2019-01-04T02:23:07.239Z,1010.42
2019-01-04T02:24:07.196Z,1010.40
2019-01-04T02:25:07.174Z,1010.40
2019-01-04T02:26:07.170Z,1010.40
2019-01-04T02:27:07.172Z,1010.39
2019-01-04T02:28:07.140Z,1010.38
2019-01-04T02:29:07.159Z,1010.37
2019-01-04T02:30:07.144Z,1010.43
2019-01-04T02:31:07.108Z,1010.41
2019-01-04T02:32:07.113Z,1010.43
2019-01-04T02:33:07.111Z,1010.40
2019-01-04T02:34:07.081Z,1010.38
2019-01-04T02:35:07.081Z,1010.33
2019-01-04T02:36:07.056Z,1010.34
2019-01-04T02:37:07.053Z,1010.34
2019-01-04T02:38:07.049Z,1010.31
2019-01-04T02:39:07.097Z,1010.27
2019-01-04T02:40:07.015Z,1010.24
2019-01-04T02:41:07.034Z,1010.26
2019-01-04T02:42:07.002Z,1010.25
2019-01-04T02:43:06.993Z,1010.31
2019-01-04T02:44:06.975Z,1010.42
2019-01-04T02:45:06.989Z,1010.41
2019-01-04T02:46:06.958Z,1010.40
2019-01-04T02:47:07.018Z,1010.34
2019-01-04T02:48:06.931Z,1010.36
2019-01-04T02:49:06.946Z,1010.35
2019-01-04T02:50:06.917Z,1010.36
2019-01-04T02:51:07.121Z,1010.40
2019-01-04T02:52:06.886Z,1010.44
2019-01-04T02:53:06.906Z,1010.45
2019-01-04T02:54:06.864Z,1010.46
2019-01-04T02:55:06.850Z,1010.41
2019-01-04T02:56:06.849Z,1010.43
2019-01-04T02:57:06.837Z,1010.39
2019-01-04T02:58:06.829Z,1010.39
2019-01-04T02:59:06.854Z,1010.34
2019-01-04T03:00:06.800Z,1010.38
2019-01-04T03:01:06.807Z,1010.37
2019-01-04T03:02:06.793Z,1010.35
2019-01-04T03:03:06.767Z,1010.40
2019-01-04T03:04:06.754Z,1010.43
2019-01-04T03:05:06.780Z,1010.34
2019-01-04T03:06:06.754Z,1010.38
2019-01-04T03:07:06.738Z,1010.35
2019-01-04T03:08:06.716Z,1010.39
2019-01-04T03:09:06.701Z,1010.40
2019-01-04T03:10:06.691Z,1010.45
2019-01-04T03:11:06.714Z,1010.47
2019-01-04T03:12:06.690Z,1010.41
2019-01-04T03:13:06.659Z,1010.45
2019-01-04T03:14:06.654Z,1010.40
2019-01-04T03:15:06.643Z,1010.38
2019-01-04T03:16:06.633Z,1010.38
2019-01-04T03:17:06.656Z,1010.33
2019-01-04T03:18:06.609Z,1010.34
2019-01-04T03:19:06.600Z,1010.36
2019-01-04T03:20:06.592Z,1010.32
2019-01-04T03:21:06.581Z,1010.34
2019-01-04T03:22:06.573Z,1010.30
2019-01-04T03:23:06.673Z,1010.32
2019-01-04T03:24:06.543Z,1010.29
2019-01-04T03:25:06.536Z,1010.26
2019-01-04T03:26:06.535Z,1010.24
2019-01-04T03:27:06.528Z,1010.21
2019-01-04T03:28:06.508Z,1010.25
2019-01-04T03:29:06.571Z,1010.26
2019-01-04T03:30:06.483Z,1010.29
2019-01-04T03:31:06.474Z,1010.32
2019-01-04T03:32:06.469Z,1010.26
2019-01-04T03:33:06.458Z,1010.23
2019-01-04T03:34:06.444Z,1010.22
2019-01-04T03:35:06.508Z,1010.16
2019-01-04T03:36:06.419Z,1010.22
2019-01-04T03:37:06.422Z,1010.18
2019-01-04T03:38:06.398Z,1010.18
2019-01-04T03:39:06.390Z,1010.16
2019-01-04T03:40:06.384Z,1010.17
2019-01-04T03:41:06.398Z,1010.18
2019-01-04T03:42:06.372Z,1010.16
2019-01-04T03:43:06.344Z,1010.14
2019-01-04T03:44:06.335Z,1010.17
2019-01-04T03:45:06.324Z,1010.14
2019-01-04T03:46:06.321Z,1010.14
2019-01-04T03:47:06.316Z,1010.10
2019-01-04T03:48:06.328Z,1010.10
2019-01-04T03:49:06.281Z,1010.09
2019-01-04T03:50:06.287Z,1010.06
2019-01-04T03:51:06.259Z,1010.06
2019-01-04T03:52:06.250Z,1010.08
2019-01-04T03:53:06.257Z,1010.08
2019-01-04T03:54:06.281Z,1010.06
2019-01-04T03:55:06.419Z,1010.10
2019-01-04T03:56:06.211Z,1010.10
2019-01-04T03:57:06.195Z,1010.05
2019-01-04T03:58:06.283Z,1010.05
2019-01-04T03:59:06.174Z,1010.04
2019-01-04T04:00:06.184Z,1010.00
2019-01-04T04:01:06.154Z,1010.07
2019-01-04T04:02:06.179Z,1010.09
2019-01-04T04:03:06.146Z,1010.06
2019-01-04T04:04:06.135Z,1010.04
2019-01-04T04:05:06.115Z,1010.03
2019-01-04T04:06:06.120Z,1010.01
2019-01-04T04:07:06.090Z,1010.02
2019-01-04T04:08:06.076Z,1009.99
2019-01-04T04:09:06.070Z,1009.94
2019-01-04T04:10:06.100Z,1009.92
2019-01-04T04:11:06.063Z,1009.90
2019-01-04T04:12:06.043Z,1009.90
2019-01-04T04:13:06.024Z,1009.84
2019-01-04T04:14:06.061Z,1009.81
2019-01-04T04:15:06.005Z,1009.78
2019-01-04T04:16:06.013Z,1009.78
2019-01-04T04:17:05.984Z,1009.76
2019-01-04T04:18:05.977Z,1009.82
2019-01-04T04:19:05.962Z,1009.80
2019-01-04T04:20:05.987Z,1009.83
2019-01-04T04:21:05.939Z,1009.83
2019-01-04T04:22:05.944Z,1009.84
2019-01-04T04:23:05.918Z,1009.85
2019-01-04T04:24:05.907Z,1009.80
2019-01-04T04:25:05.927Z,1009.83
2019-01-04T04:26:05.892Z,1009.77
2019-01-04T04:27:05.877Z,1009.81
2019-01-04T04:28:05.878Z,1009.84
2019-01-04T04:29:05.851Z,1009.82
2019-01-04T04:30:05.847Z,1009.85
2019-01-04T04:31:05.849Z,1009.91
2019-01-04T04:32:05.850Z,1009.89
2019-01-04T04:33:05.832Z,1009.96
2019-01-04T04:34:05.799Z,1009.95
2019-01-04T04:35:05.790Z,1010.02
2019-01-04T04:36:05.784Z,1010.03
2019-01-04T04:37:05.773Z,1010.03
2019-01-04T04:38:05.832Z,1010.06
2019-01-04T04:39:05.778Z,1010.04
2019-01-04T04:40:05.736Z,1010.01
2019-01-04T04:41:05.731Z,1010.05
2019-01-04T04:42:05.715Z,1010.08
2019-01-04T04:43:05.718Z,1010.07
2019-01-04T04:44:05.749Z,1009.99
2019-01-04T04:45:05.686Z,1010.05
2019-01-04T04:46:05.688Z,1010.03
2019-01-04T04:47:05.673Z,1010.08
2019-01-04T04:48:05.654Z,1010.09
2019-01-04T04:49:05.643Z,1009.99
2019-01-04T04:50:05.658Z,1009.98
2019-01-04T04:51:05.650Z,1009.95
2019-01-04T04:52:05.625Z,1009.98
2019-01-04T04:53:05.613Z,1010.00
2019-01-04T04:54:05.588Z,1009.97
2019-01-04T04:55:05.597Z,1010.01
2019-01-04T04:56:05.581Z,1010.02
2019-01-04T04:57:05.555Z,1010.00
2019-01-04T04:58:05.575Z,1010.03
2019-01-04T04:59:05.537Z,1010.04
2019-01-04T05:00:05.524Z,1010.01
2019-01-04T05:01:05.510Z,1010.04
2019-01-04T05:02:05.522Z,1010.08
2019-01-04T05:03:05.500Z,1010.08
2019-01-04T05:04:05.484Z,1009.99
2019-01-04T05:05:05.487Z,1010.00
2019-01-04T05:06:05.465Z,1009.98
2019-01-04T05:07:05.453Z,1009.95
2019-01-04T05:08:05.455Z,1009.96
2019-01-04T05:09:05.426Z,1009.92
2019-01-04T05:10:05.432Z,1009.89
2019-01-04T05:11:05.443Z,1009.83
2019-01-04T05:12:05.401Z,1009.80
2019-01-04T05:13:05.399Z,1009.80
2019-01-04T05:14:05.375Z,1009.79
2019-01-04T05:15:05.375Z,1009.78
2019-01-04T05:16:05.369Z,1009.80
2019-01-04T05:17:05.377Z,1009.82
2019-01-04T05:18:05.351Z,1009.79
2019-01-04T05:19:05.324Z,1009.77
2019-01-04T05:20:05.336Z,1009.81
2019-01-04T05:21:05.299Z,1009.85
2019-01-04T05:22:05.302Z,1009.92
2019-01-04T05:23:05.297Z,1009.88
2019-01-04T05:24:05.308Z,1009.89
2019-01-04T05:25:05.257Z,1009.89
2019-01-04T05:26:05.246Z,1009.93
2019-01-04T05:27:05.235Z,1009.98
2019-01-04T05:28:05.232Z,1010.01
2019-01-04T05:29:05.218Z,1009.94
2019-01-04T05:30:05.251Z,1009.99
2019-01-04T05:31:05.196Z,1009.96
2019-01-04T05:32:05.185Z,1009.89
2019-01-04T05:33:05.189Z,1009.86
2019-01-04T05:34:05.163Z,1009.87
2019-01-04T05:35:05.156Z,1009.86
2019-01-04T05:36:05.190Z,1009.87
2019-01-04T05:37:05.154Z,1009.93
2019-01-04T05:38:05.149Z,1009.83
2019-01-04T05:39:05.110Z,1009.86
2019-01-04T05:40:05.096Z,1009.84
2019-01-04T05:41:05.087Z,1009.81
2019-01-04T05:42:05.077Z,1009.83
2019-01-04T05:43:05.099Z,1009.83
2019-01-04T05:44:05.069Z,1009.91
2019-01-04T05:45:05.048Z,1009.86
2019-01-04T05:46:05.035Z,1009.83
2019-01-04T05:47:05.019Z,1009.87
2019-01-04T05:48:05.038Z,1009.88
2019-01-04T05:49:05.007Z,1009.82
2019-01-04T05:50:05.008Z,1009.89
2019-01-04T05:51:04.986Z,1009.85
2019-01-04T05:52:04.967Z,1009.87
2019-01-04T05:53:04.980Z,1009.90
2019-01-04T05:54:04.945Z,1009.87
2019-01-04T05:55:04.955Z,1009.88
2019-01-04T05:56:04.923Z,1009.84
2019-01-04T05:57:04.949Z,1009.83
2019-01-04T05:58:04.903Z,1009.85
2019-01-04T05:59:04.915Z,1009.83
2019-01-04T06:00:04.932Z,1009.83
2019-01-04T06:01:04.923Z,1009.78
2019-01-04T06:02:04.938Z,1009.82
2019-01-04T06:03:04.905Z,1009.77
2019-01-04T06:04:04.900Z,1009.79
2019-01-04T06:05:05.006Z,1009.74
2019-01-04T06:06:04.858Z,1009.73
2019-01-04T06:07:04.832Z,1009.71
2019-01-04T06:08:04.856Z,1009.69
2019-01-04T06:09:04.819Z,1009.76
2019-01-04T06:10:04.811Z,1009.78
2019-01-04T06:11:04.783Z,1009.73
2019-01-04T06:12:04.758Z,1009.72
2019-01-04T06:13:04.740Z,1009.71
2019-01-04T06:14:04.748Z,1009.69
2019-01-04T06:15:04.724Z,1009.67
2019-01-04T06:16:04.739Z,1009.70
2019-01-04T06:17:04.730Z,1009.73
2019-01-04T06:18:04.707Z,1009.69
2019-01-04T06:19:04.691Z,1009.67
2019-01-04T06:20:04.669Z,1009.63
2019-01-04T06:21:04.720Z,1009.61
2019-01-04T06:22:04.655Z,1009.59
2019-01-04T06:23:04.643Z,1009.65
2019-01-04T06:24:04.948Z,1009.68
2019-01-04T06:25:04.625Z,1009.72
2019-01-04T06:26:04.616Z,1009.69
2019-01-04T06:27:04.608Z,1009.73
2019-01-04T06:28:04.582Z,1009.74
2019-01-04T06:29:04.591Z,1009.68
2019-01-04T06:30:04.603Z,1009.63
2019-01-04T06:31:04.564Z,1009.70
2019-01-04T06:32:04.541Z,1009.72
2019-01-04T06:33:04.543Z,1009.69
2019-01-04T06:34:04.550Z,1009.66
2019-01-04T06:35:04.547Z,1009.68
2019-01-04T06:36:04.554Z,1009.65
2019-01-04T06:37:04.528Z,1009.66
2019-01-04T06:38:04.536Z,1009.66
2019-01-04T06:39:04.543Z,1009.63
2019-01-04T06:40:04.474Z,1009.57
2019-01-04T06:41:04.554Z,1009.51
2019-01-04T06:42:04.493Z,1009.59
2019-01-04T06:43:04.503Z,1009.59
2019-01-04T06:44:04.492Z,1009.58
2019-01-04T06:45:04.504Z,1009.57
2019-01-04T06:46:04.467Z,1009.53
2019-01-04T06:47:04.486Z,1009.56
2019-01-04T06:48:04.424Z,1009.55
2019-01-04T06:49:04.384Z,1009.55
2019-01-04T06:50:04.350Z,1009.55
2019-01-04T06:51:04.371Z,1009.56
2019-01-04T06:52:04.334Z,1009.59
2019-01-04T06:53:04.324Z,1009.64
2019-01-04T06:54:04.326Z,1009.64
2019-01-04T06:55:04.297Z,1009.60
2019-01-04T06:56:04.312Z,1009.73
2019-01-04T06:57:04.282Z,1009.72
2019-01-04T06:58:04.266Z,1009.75
2019-01-04T06:59:04.271Z,1009.73
2019-01-04T07:00:04.246Z,1009.73
2019-01-04T07:01:04.231Z,1009.71
2019-01-04T07:02:04.230Z,1009.72
2019-01-04T07:03:04.207Z,1009.70
2019-01-04T07:04:04.199Z,1009.73
2019-01-04T07:05:04.242Z,1009.75
2019-01-04T07:06:04.237Z,1009.75
2019-01-04T07:07:04.175Z,1009.71
2019-01-04T07:08:04.156Z,1009.75
2019-01-04T07:09:04.173Z,1009.69
2019-01-04T07:10:04.136Z,1009.72
2019-01-04T07:11:04.139Z,1009.73
2019-01-04T07:12:04.121Z,1009.74
2019-01-04T07:13:04.108Z,1009.71
2019-01-04T07:14:04.100Z,1009.72
2019-01-04T07:15:04.083Z,1009.74
2019-01-04T07:16:04.082Z,1009.71
2019-01-04T07:17:04.080Z,1009.71
2019-01-04T07:18:04.072Z,1009.69
2019-01-04T07:19:04.044Z,1009.70
2019-01-04T07:20:04.036Z,1009.66
2019-01-04T07:21:04.118Z,1009.69
2019-01-04T07:22:04.014Z,1009.63
2019-01-04T07:23:04.013Z,1009.65
2019-01-04T07:24:03.985Z,1009.60
2019-01-04T07:25:03.983Z,1009.70
2019-01-04T07:26:03.968Z,1009.63
2019-01-04T07:27:04.160Z,1009.66
2019-01-04T07:28:03.978Z,1009.64
2019-01-04T07:29:03.965Z,1009.62
2019-01-04T07:30:03.940Z,1009.70
2019-01-04T07:31:03.910Z,1009.71
2019-01-04T07:32:03.910Z,1009.75
2019-01-04T07:33:03.889Z,1009.71
2019-01-04T07:34:03.895Z,1009.73
2019-01-04T07:35:03.914Z,1009.70
2019-01-04T07:36:03.860Z,1009.73
2019-01-04T07:37:03.850Z,1009.70
2019-01-04T07:38:03.857Z,1009.75
2019-01-04T07:39:03.826Z,1009.77
2019-01-04T07:40:03.812Z,1009.77
2019-01-04T07:41:03.840Z,1009.80
2019-01-04T07:42:03.801Z,1009.78
2019-01-04T07:43:03.791Z,1009.77
2019-01-04T07:44:03.770Z,1009.80
2019-01-04T07:45:03.802Z,1009.82
2019-01-04T07:46:03.766Z,1009.73
2019-01-04T07:47:03.745Z,1009.68
2019-01-04T07:48:03.730Z,1009.67
2019-01-04T07:49:03.745Z,1009.71
2019-01-04T07:50:03.740Z,1009.78
2019-01-04T07:51:03.714Z,1009.78
2019-01-04T07:52:03.708Z,1009.82
2019-01-04T07:53:03.678Z,1009.86
2019-01-04T07:54:03.669Z,1009.89
2019-01-04T07:55:03.709Z,1009.88
2019-01-04T07:56:03.659Z,1009.91
2019-01-04T07:57:03.645Z,1009.88
2019-01-04T07:58:03.641Z,1009.88
2019-01-04T07:59:03.617Z,1009.88
2019-01-04T08:00:03.637Z,1009.85
2019-01-04T08:01:03.626Z,1009.85
2019-01-04T08:02:03.629Z,1009.84
2019-01-04T08:03:03.574Z,1009.82
2019-01-04T08:04:03.571Z,1009.84
2019-01-04T08:05:03.598Z,1009.82
2019-01-04T08:06:03.557Z,1009.85
2019-01-04T08:07:03.533Z,1009.80
2019-01-04T08:08:03.522Z,1009.82
2019-01-04T08:09:03.560Z,1009.73
2019-01-04T08:10:03.522Z,1009.65
2019-01-04T08:11:03.484Z,1009.67
2019-01-04T08:12:03.488Z,1009.66
2019-01-04T08:13:03.480Z,1009.65
2019-01-04T08:14:03.509Z,1009.68
2019-01-04T08:15:03.460Z,1009.69
2019-01-04T08:16:03.452Z,1009.67
2019-01-04T08:17:03.423Z,1009.70
2019-01-04T08:18:03.415Z,1009.74
2019-01-04T08:19:03.450Z,1009.80
2019-01-04T08:20:03.389Z,1009.82
2019-01-04T08:21:03.404Z,1009.87
2019-01-04T08:22:03.421Z,1009.88
2019-01-04T08:23:03.381Z,1009.85
2019-01-04T08:24:03.497Z,1009.88
2019-01-04T08:25:03.338Z,1009.87
2019-01-04T08:26:03.629Z,1009.86
2019-01-04T08:27:03.349Z,1009.88
2019-01-04T08:28:03.354Z,1009.87
2019-01-04T08:29:03.320Z,1009.80
2019-01-04T08:30:03.279Z,1009.82
2019-01-04T08:31:03.361Z,1009.81
2019-01-04T08:32:03.271Z,1009.81
2019-01-04T08:33:03.316Z,1009.81
2019-01-04T08:34:03.307Z,1009.78
2019-01-04T08:35:03.247Z,1009.74
2019-01-04T08:36:03.232Z,1009.75
2019-01-04T08:37:03.243Z,1009.75
2019-01-04T08:38:03.192Z,1009.78
2019-01-04T08:39:03.201Z,1009.77
2019-01-04T08:40:03.193Z,1009.78
2019-01-04T08:41:03.198Z,1009.76
2019-01-04T08:42:03.152Z,1009.75
2019-01-04T08:43:03.162Z,1009.77
2019-01-04T08:44:03.169Z,1009.78
2019-01-04T08:45:03.128Z,1009.72
2019-01-04T08:46:03.131Z,1009.78
2019-01-04T08:47:03.106Z,1009.82
2019-01-04T08:48:03.123Z,1009.85
2019-01-04T08:49:03.124Z,1009.81
2019-01-04T08:50:03.104Z,1009.84
2019-01-04T08:51:03.092Z,1009.87
2019-01-04T08:52:03.049Z,1009.85
2019-01-04T08:53:03.042Z,1009.81
2019-01-04T08:54:03.024Z,1009.82
2019-01-04T08:55:03.032Z,1009.73
2019-01-04T08:56:03.025Z,1009.73
2019-01-04T08:57:03.004Z,1009.66
2019-01-04T08:58:02.986Z,1009.62
2019-01-04T08:59:02.971Z,1009.65
2019-01-04T09:00:02.997Z,1009.64
2019-01-04T09:01:02.966Z,1009.61
2019-01-04T09:02:02.950Z,1009.57
2019-01-04T09:03:02.938Z,1009.61
2019-01-04T09:04:02.918Z,1009.55
2019-01-04T09:05:02.918Z,1009.57
2019-01-04T09:06:02.903Z,1009.55
2019-01-04T09:07:02.933Z,1009.51
2019-01-04T09:08:02.889Z,1009.51
2019-01-04T09:09:02.929Z,1009.48
2019-01-04T09:10:02.854Z,1009.53
2019-01-04T09:11:02.853Z,1009.51
2019-01-04T09:12:02.876Z,1009.44
2019-01-04T09:13:02.887Z,1009.50
2019-01-04T09:14:02.824Z,1009.49
2019-01-04T09:15:02.837Z,1009.48
2019-01-04T09:16:02.802Z,1009.56
2019-01-04T09:17:02.819Z,1009.49
2019-01-04T09:18:02.768Z,1009.51
2019-01-04T09:19:02.782Z,1009.49
2019-01-04T09:20:02.762Z,1009.49
2019-01-04T09:21:02.739Z,1009.44
2019-01-04T09:22:02.740Z,1009.44
2019-01-04T09:23:02.732Z,1009.46
2019-01-04T09:24:02.746Z,1009.49
2019-01-04T09:25:02.751Z,1009.48
2019-01-04T09:26:02.706Z,1009.46
2019-01-04T09:27:02.710Z,1009.46
2019-01-04T09:28:02.685Z,1009.38
2019-01-04T09:29:02.678Z,1009.42
2019-01-04T09:30:02.695Z,1009.37
2019-01-04T09:31:02.631Z,1009.40
2019-01-04T09:32:02.638Z,1009.42
2019-01-04T09:33:02.653Z,1009.40
2019-01-04T09:34:02.633Z,1009.40
2019-01-04T09:35:02.648Z,1009.37
2019-01-04T09:36:02.611Z,1009.36
2019-01-04T09:37:02.585Z,1009.36
2019-01-04T09:38:02.586Z,1009.32
2019-01-04T09:39:03.384Z,1009.36
2019-01-04T09:40:02.542Z,1009.32
2019-01-04T09:41:02.528Z,1009.30
2019-01-04T09:42:02.555Z,1009.27
2019-01-04T09:43:02.550Z,1009.28
2019-01-04T09:44:02.495Z,1009.26
2019-01-04T09:45:02.481Z,1009.25
2019-01-04T09:46:02.473Z,1009.25
2019-01-04T09:47:02.487Z,1009.22
2019-01-04T09:48:02.461Z,1009.25
2019-01-04T09:49:02.457Z,1009.17
2019-01-04T09:50:02.459Z,1009.18
2019-01-04T09:51:02.425Z,1009.13
2019-01-04T09:52:02.455Z,1009.12
2019-01-04T09:53:02.404Z,1009.11
2019-01-04T09:54:02.405Z,1009.11
2019-01-04T09:55:02.389Z,1009.08
2019-01-04T09:56:02.405Z,1009.12
2019-01-04T09:57:02.360Z,1009.11
2019-01-04T09:58:02.371Z,1009.12
2019-01-04T09:59:02.367Z,1009.03
2019-01-04T10:00:02.352Z,1009.03
2019-01-04T10:01:02.325Z,1009.02
2019-01-04T10:02:02.312Z,1009.07
2019-01-04T10:03:02.329Z,1008.98
2019-01-04T10:04:02.368Z,1008.97
2019-01-04T10:05:02.278Z,1008.94
2019-01-04T10:06:02.289Z,1008.90
2019-01-04T10:07:02.251Z,1008.89
2019-01-04T10:08:02.240Z,1008.85
2019-01-04T10:09:02.245Z,1008.86
2019-01-04T10:10:02.279Z,1008.91
2019-01-04T10:11:02.216Z,1008.94
2019-01-04T10:12:02.202Z,1008.88
2019-01-04T10:13:02.221Z,1008.88
2019-01-04T10:14:02.191Z,1008.90
2019-01-04T10:15:02.181Z,1008.87
2019-01-04T10:16:02.186Z,1008.89
2019-01-04T10:17:02.365Z,1008.82
2019-01-04T10:18:02.160Z,1008.81
2019-01-04T10:19:02.234Z,1008.80
2019-01-04T10:20:02.131Z,1008.79
2019-01-04T10:21:02.103Z,1008.88
2019-01-04T10:22:02.102Z,1008.81
2019-01-04T10:23:02.113Z,1008.81
2019-01-04T10:24:02.098Z,1008.83
2019-01-04T10:25:02.059Z,1008.76
2019-01-04T10:26:02.064Z,1008.72
2019-01-04T10:27:02.086Z,1008.72
2019-01-04T10:28:02.080Z,1008.74
2019-01-04T10:29:02.024Z,1008.69
2019-01-04T10:30:02.121Z,1008.69
2019-01-04T10:31:01.992Z,1008.63
2019-01-04T10:32:02.007Z,1008.59
2019-01-04T10:33:01.980Z,1008.58
2019-01-04T10:34:01.982Z,1008.46
2019-01-04T10:35:01.952Z,1008.46
2019-01-04T10:36:01.956Z,1008.44
2019-01-04T10:37:01.927Z,1008.46
2019-01-04T10:38:01.948Z,1008.44
2019-01-04T10:39:01.909Z,1008.33
2019-01-04T10:40:01.897Z,1008.33
2019-01-04T10:41:01.918Z,1008.29
2019-01-04T10:42:01.875Z,1008.28
2019-01-04T10:43:01.867Z,1008.35
2019-01-04T10:44:01.871Z,1008.33
2019-01-04T10:45:01.846Z,1008.32
2019-01-04T10:46:01.847Z,1008.31
2019-01-04T10:47:01.822Z,1008.32
2019-01-04T10:48:01.810Z,1008.31
2019-01-04T10:49:01.814Z,1008.32
2019-01-04T10:50:01.827Z,1008.33
2019-01-04T10:51:01.782Z,1008.28
2019-01-04T10:52:01.772Z,1008.31
2019-01-04T10:53:01.790Z,1008.29
2019-01-04T10:54:01.751Z,1008.32
2019-01-04T10:55:01.732Z,1008.27
2019-01-04T10:56:01.742Z,1008.30
2019-01-04T10:57:01.711Z,1008.26
2019-01-04T10:58:01.701Z,1008.23
2019-01-04T10:59:01.712Z,1008.17
2019-01-04T11:00:01.680Z,1008.21
2019-01-04T11:01:01.668Z,1008.21
2019-01-04T11:02:01.675Z,1008.22
2019-01-04T11:03:01.653Z,1008.20
2019-01-04T11:04:01.636Z,1008.24
2019-01-04T11:05:01.649Z,1008.24
2019-01-04T11:06:01.629Z,1008.22
2019-01-04T11:07:01.608Z,1008.24
2019-01-04T11:08:01.618Z,1008.20
2019-01-04T11:09:01.583Z,1008.19
2019-01-04T11:10:01.588Z,1008.19
2019-01-04T11:11:01.584Z,1008.17
2019-01-04T11:12:01.562Z,1008.12
2019-01-04T11:13:01.560Z,1008.11
2019-01-04T11:14:01.557Z,1008.11
2019-01-04T11:15:01.548Z,1008.08
2019-01-04T11:16:01.518Z,1008.07
2019-01-04T11:17:01.503Z,1008.02
2019-01-04T11:18:01.503Z,1008.02
2019-01-04T11:19:01.484Z,1008.06
2019-01-04T11:20:01.492Z,1008.09
2019-01-04T11:21:01.460Z,1008.12
2019-01-04T11:22:01.452Z,1008.15
2019-01-04T11:23:01.488Z,1008.16
2019-01-04T11:24:01.453Z,1008.15
2019-01-04T11:25:01.431Z,1008.08
2019-01-04T11:26:01.438Z,1008.08
2019-01-04T11:27:01.397Z,1008.04
2019-01-04T11:28:01.388Z,1008.04
2019-01-04T11:29:01.403Z,1007.98
2019-01-04T11:30:01.381Z,1008.01
2019-01-04T11:31:01.366Z,1008.00
2019-01-04T11:32:01.390Z,1008.01
2019-01-04T11:33:01.334Z,1008.00
2019-01-04T11:34:01.325Z,1008.00
2019-01-04T11:35:01.310Z,1007.97
2019-01-04T11:36:01.307Z,1008.01
2019-01-04T11:37:01.323Z,1007.98
2019-01-04T11:38:01.303Z,1007.97
2019-01-04T11:39:01.297Z,1008.02
2019-01-04T11:40:01.267Z,1008.02
2019-01-04T11:41:01.248Z,1007.96
2019-01-04T11:42:01.249Z,1008.01
2019-01-04T11:43:01.450Z,1007.96
2019-01-04T11:44:01.250Z,1007.91
2019-01-04T11:45:01.208Z,1007.85
2019-01-04T11:46:01.216Z,1007.89
2019-01-04T11:47:01.190Z,1007.88
2019-01-04T11:48:01.183Z,1007.83
2019-01-04T11:49:01.194Z,1007.87
2019-01-04T11:50:01.152Z,1007.79
2019-01-04T11:51:01.154Z,1007.86
2019-01-04T11:52:01.152Z,1007.88
2019-01-04T11:53:01.129Z,1007.89
2019-01-04T11:54:01.119Z,1007.97
2019-01-04T11:55:01.135Z,1007.88
2019-01-04T11:56:01.095Z,1007.91
2019-01-04T11:57:01.089Z,1007.85
2019-01-04T11:58:01.116Z,1007.88
2019-01-04T11:59:01.064Z,1007.88
2019-01-04T12:00:01.093Z,1007.85
2019-01-04T12:01:01.045Z,1007.80
2019-01-04T12:02:01.030Z,1007.81
2019-01-04T12:03:01.038Z,1007.78
2019-01-04T12:04:02.154Z,1007.69
2019-01-04T12:05:00.997Z,1007.62